sensor_id;sensor_type;location;lat;lon;timestamp;P1;durP1;ratioP1;P2;durP2;ratioP2
43986;SDS011;29650;47.378;8.300;2024-03-23T00:51:46;4.13;;;2.40;;
43986;SDS011;29650;47.378;8.300;2024-03-23T00:54:13;8.68;;;3.00;;
43986;SDS011;29650;47.378;8.300;2024-03-23T00:56:39;4.47;;;2.28;;
43986;SDS011;29650;47.378;8.300;2024-03-23T00:59:06;3.55;;;2.70;;
43986;SDS011;29650;47.378;8.300;2024-03-23T01:01:32;4.28;;;2.25;;
43986;SDS011;29650;47.378;8.300;2024-03-23T01:03:59;6.50;;;2.85;;
43986;SDS011;29650;47.378;8.300;2024-03-23T01:06:25;4.07;;;2.47;;
43986;SDS011;29650;47.378;8.300;2024-03-23T01:08:53;5.57;;;2.85;;
43986;SDS011;29650;47.378;8.300;2024-03-23T01:11:19;5.65;;;2.70;;
43986;SDS011;29650;47.378;8.300;2024-03-23T01:13:46;5.80;;;2.42;;
43986;SDS011;29650;47.378;8.300;2024-03-23T01:16:12;3.58;;;2.33;;
43986;SDS011;29650;47.378;8.300;2024-03-23T01:18:39;6.45;;;2.60;;
43986;SDS011;29650;47.378;8.300;2024-03-23T01:21:05;5.22;;;3.10;;
43986;SDS011;29650;47.378;8.300;2024-03-23T01:23:31;6.15;;;2.40;;
43986;SDS011;29650;47.378;8.300;2024-03-23T01:25:59;7.38;;;2.50;;
43986;SDS011;29650;47.378;8.300;2024-03-23T01:28:26;8.23;;;2.35;;
43986;SDS011;29650;47.378;8.300;2024-03-23T01:30:52;3.00;;;2.70;;
43986;SDS011;29650;47.378;8.300;2024-03-23T01:33:19;9.00;;;2.65;;
43986;SDS011;29650;47.378;8.300;2024-03-23T01:35:44;3.55;;;2.33;;
43986;SDS011;29650;47.378;8.300;2024-03-23T01:38:11;5.13;;;2.33;;
43986;SDS011;29650;47.378;8.300;2024-03-23T01:40:37;6.60;;;2.17;;
43986;SDS011;29650;47.378;8.300;2024-03-23T01:43:06;3.30;;;2.25;;
43986;SDS011;29650;47.378;8.300;2024-03-23T01:45:33;6.53;;;2.22;;
43986;SDS011;29650;47.378;8.300;2024-03-23T01:48:00;4.90;;;2.10;;
43986;SDS011;29650;47.378;8.300;2024-03-23T01:50:26;3.33;;;1.95;;
43986;SDS011;29650;47.378;8.300;2024-03-23T01:52:54;4.05;;;2.20;;
43986;SDS011;29650;47.378;8.300;2024-03-23T01:55:20;3.30;;;2.00;;
43986;SDS011;29650;47.378;8.300;2024-03-23T01:57:47;4.60;;;2.38;;
43986;SDS011;29650;47.378;8.300;2024-03-23T02:00:14;5.78;;;2.53;;
43986;SDS011;29650;47.378;8.300;2024-03-23T02:02:42;6.85;;;2.30;;
43986;SDS011;29650;47.378;8.300;2024-03-23T02:05:09;3.08;;;2.55;;
43986;SDS011;29650;47.378;8.300;2024-03-23T02:07:37;6.35;;;2.55;;
43986;SDS011;29650;47.378;8.300;2024-03-23T02:10:03;5.22;;;2.30;;
43986;SDS011;29650;47.378;8.300;2024-03-23T02:12:32;4.00;;;2.63;;
43986;SDS011;29650;47.378;8.300;2024-03-23T02:14:58;3.58;;;2.30;;
43986;SDS011;29650;47.378;8.300;2024-03-23T02:17:26;4.90;;;2.45;;
43986;SDS011;29650;47.378;8.300;2024-03-23T02:19:52;5.97;;;2.50;;
43986;SDS011;29650;47.378;8.300;2024-03-23T02:22:19;4.68;;;2.50;;
43986;SDS011;29650;47.378;8.300;2024-03-23T02:24:47;4.72;;;2.20;;
43986;SDS011;29650;47.378;8.300;2024-03-23T02:27:14;4.85;;;2.45;;
43986;SDS011;29650;47.378;8.300;2024-03-23T02:29:40;5.00;;;2.55;;
43986;SDS011;29650;47.378;8.300;2024-03-23T02:32:07;5.68;;;2.90;;
43986;SDS011;29650;47.378;8.300;2024-03-23T02:34:34;2.13;;;1.75;;
43986;SDS011;29650;47.378;8.300;2024-03-23T02:37:01;6.03;;;2.60;;
43986;SDS011;29650;47.378;8.300;2024-03-23T02:39:27;5.53;;;2.30;;
43986;SDS011;29650;47.378;8.300;2024-03-23T02:41:55;4.72;;;2.45;;
43986;SDS011;29650;47.378;8.300;2024-03-23T02:44:21;5.20;;;2.97;;
43986;SDS011;29650;47.378;8.300;2024-03-23T02:46:48;5.03;;;2.60;;
43986;SDS011;29650;47.378;8.300;2024-03-23T02:49:14;4.57;;;2.90;;
43986;SDS011;29650;47.378;8.300;2024-03-23T02:51:41;3.85;;;2.70;;
43986;SDS011;29650;47.378;8.300;2024-03-23T02:54:07;5.05;;;2.80;;
43986;SDS011;29650;47.378;8.300;2024-03-23T02:56:34;5.85;;;3.28;;
43986;SDS011;29650;47.378;8.300;2024-03-23T02:59:01;4.95;;;2.65;;
43986;SDS011;29650;47.378;8.300;2024-03-23T03:01:28;5.00;;;2.42;;
43986;SDS011;29650;47.378;8.300;2024-03-23T03:03:54;7.43;;;2.80;;
43986;SDS011;29650;47.378;8.300;2024-03-23T03:06:24;7.75;;;3.83;;
43986;SDS011;29650;47.378;8.300;2024-03-23T03:08:50;5.70;;;2.90;;
43986;SDS011;29650;47.378;8.300;2024-03-23T03:11:17;6.82;;;2.67;;
43986;SDS011;29650;47.378;8.300;2024-03-23T03:13:43;5.88;;;2.22;;
43986;SDS011;29650;47.378;8.300;2024-03-23T03:16:12;4.82;;;2.97;;
43986;SDS011;29650;47.378;8.300;2024-03-23T03:18:38;3.00;;;2.30;;
43986;SDS011;29650;47.378;8.300;2024-03-23T03:21:06;4.90;;;2.67;;
43986;SDS011;29650;47.378;8.300;2024-03-23T03:23:36;7.47;;;2.70;;
43986;SDS011;29650;47.378;8.300;2024-03-23T03:26:03;4.38;;;2.60;;
43986;SDS011;29650;47.378;8.300;2024-03-23T03:28:29;5.30;;;2.75;;
43986;SDS011;29650;47.378;8.300;2024-03-23T03:30:57;5.22;;;2.20;;
43986;SDS011;29650;47.378;8.300;2024-03-23T03:33:25;3.42;;;2.22;;
43986;SDS011;29650;47.378;8.300;2024-03-23T03:35:52;4.85;;;3.00;;
43986;SDS011;29650;47.378;8.300;2024-03-23T03:38:19;5.38;;;2.60;;
43986;SDS011;29650;47.378;8.300;2024-03-23T03:40:46;3.78;;;2.58;;
43986;SDS011;29650;47.378;8.300;2024-03-23T03:43:12;3.90;;;2.20;;
43986;SDS011;29650;47.378;8.300;2024-03-23T03:45:39;4.13;;;2.65;;
43986;SDS011;29650;47.378;8.300;2024-03-23T03:48:05;4.85;;;2.63;;
43986;SDS011;29650;47.378;8.300;2024-03-23T03:50:34;2.65;;;2.05;;
43986;SDS011;29650;47.378;8.300;2024-03-23T03:53:00;3.83;;;2.40;;
43986;SDS011;29650;47.378;8.300;2024-03-23T03:55:27;7.95;;;2.00;;
43986;SDS011;29650;47.378;8.300;2024-03-23T03:57:53;4.70;;;1.90;;
43986;SDS011;29650;47.378;8.300;2024-03-23T04:00:20;5.22;;;2.58;;
43986;SDS011;29650;47.378;8.300;2024-03-23T04:02:46;5.47;;;2.38;;
43986;SDS011;29650;47.378;8.300;2024-03-23T04:05:13;4.55;;;2.30;;
43986;SDS011;29650;47.378;8.300;2024-03-23T04:07:40;3.30;;;2.17;;
43986;SDS011;29650;47.378;8.300;2024-03-23T04:10:09;3.65;;;2.55;;
43986;SDS011;29650;47.378;8.300;2024-03-23T04:12:35;4.63;;;2.55;;
43986;SDS011;29650;47.378;8.300;2024-03-23T04:15:02;8.75;;;2.47;;
43986;SDS011;29650;47.378;8.300;2024-03-23T04:17:29;4.05;;;2.78;;
43986;SDS011;29650;47.378;8.300;2024-03-23T04:19:59;5.40;;;2.63;;
43986;SDS011;29650;47.378;8.300;2024-03-23T04:22:25;6.05;;;2.55;;
43986;SDS011;29650;47.378;8.300;2024-03-23T04:24:54;4.32;;;2.60;;
43986;SDS011;29650;47.378;8.300;2024-03-23T04:27:20;6.60;;;2.50;;
43986;SDS011;29650;47.378;8.300;2024-03-23T04:29:47;8.45;;;3.40;;
43986;SDS011;29650;47.378;8.300;2024-03-23T04:32:14;4.45;;;2.40;;
43986;SDS011;29650;47.378;8.300;2024-03-23T04:34:41;3.30;;;2.70;;
43986;SDS011;29650;47.378;8.300;2024-03-23T04:37:06;5.30;;;2.47;;
43986;SDS011;29650;47.378;8.300;2024-03-23T04:39:33;5.13;;;2.40;;
43986;SDS011;29650;47.378;8.300;2024-03-23T04:42:02;2.83;;;2.20;;
43986;SDS011;29650;47.378;8.300;2024-03-23T04:44:29;3.05;;;2.25;;
43986;SDS011;29650;47.378;8.300;2024-03-23T04:46:57;4.95;;;2.53;;
43986;SDS011;29650;47.378;8.300;2024-03-23T04:49:23;4.60;;;2.45;;
43986;SDS011;29650;47.378;8.300;2024-03-23T04:51:50;4.25;;;2.28;;
43986;SDS011;29650;47.378;8.300;2024-03-23T04:54:17;4.90;;;2.40;;
43986;SDS011;29650;47.378;8.300;2024-03-23T04:56:45;5.85;;;2.50;;
43986;SDS011;29650;47.378;8.300;2024-03-23T04:59:12;5.13;;;2.50;;
43986;SDS011;29650;47.378;8.300;2024-03-23T05:01:39;3.92;;;2.30;;
43986;SDS011;29650;47.378;8.300;2024-03-23T05:04:07;3.45;;;1.60;;
43986;SDS011;29650;47.378;8.300;2024-03-23T05:06:34;6.00;;;1.92;;
43986;SDS011;29650;47.378;8.300;2024-03-23T05:09:00;4.35;;;2.22;;
43986;SDS011;29650;47.378;8.300;2024-03-23T05:11:28;5.40;;;2.63;;
43986;SDS011;29650;47.378;8.300;2024-03-23T05:13:54;3.92;;;1.73;;
43986;SDS011;29650;47.378;8.300;2024-03-23T05:16:22;2.60;;;1.58;;
43986;SDS011;29650;47.378;8.300;2024-03-23T05:18:48;3.83;;;1.75;;
43986;SDS011;29650;47.378;8.300;2024-03-23T05:21:15;1.40;;;1.30;;
43986;SDS011;29650;47.378;8.300;2024-03-23T05:23:41;3.90;;;1.73;;
43986;SDS011;29650;47.378;8.300;2024-03-23T05:26:09;4.68;;;1.70;;
43986;SDS011;29650;47.378;8.300;2024-03-23T05:28:35;4.57;;;2.05;;
43986;SDS011;29650;47.378;8.300;2024-03-23T05:31:02;9.85;;;1.98;;
43986;SDS011;29650;47.378;8.300;2024-03-23T05:33:30;3.75;;;1.60;;
43986;SDS011;29650;47.378;8.300;2024-03-23T05:35:57;3.28;;;2.13;;
43986;SDS011;29650;47.378;8.300;2024-03-23T05:38:23;2.42;;;1.73;;
43986;SDS011;29650;47.378;8.300;2024-03-23T05:40:53;3.63;;;2.05;;
43986;SDS011;29650;47.378;8.300;2024-03-23T05:43:20;3.67;;;1.80;;
43986;SDS011;29650;47.378;8.300;2024-03-23T05:45:52;6.75;;;1.88;;
43986;SDS011;29650;47.378;8.300;2024-03-23T05:48:19;3.05;;;1.80;;
43986;SDS011;29650;47.378;8.300;2024-03-23T05:50:47;2.90;;;2.00;;
43986;SDS011;29650;47.378;8.300;2024-03-23T05:53:14;3.08;;;1.80;;
43986;SDS011;29650;47.378;8.300;2024-03-23T05:55:41;4.07;;;1.80;;
43986;SDS011;29650;47.378;8.300;2024-03-23T05:58:07;2.05;;;1.50;;
43986;SDS011;29650;47.378;8.300;2024-03-23T06:00:34;3.95;;;1.77;;
43986;SDS011;29650;47.378;8.300;2024-03-23T06:03:00;4.30;;;1.70;;
43986;SDS011;29650;47.378;8.300;2024-03-23T06:05:26;4.03;;;1.95;;
43986;SDS011;29650;47.378;8.300;2024-03-23T06:07:54;4.40;;;1.85;;
43986;SDS011;29650;47.378;8.300;2024-03-23T06:10:21;6.47;;;2.17;;
43986;SDS011;29650;47.378;8.300;2024-03-23T06:12:47;4.13;;;2.00;;
43986;SDS011;29650;47.378;8.300;2024-03-23T06:15:14;4.28;;;1.70;;
43986;SDS011;29650;47.378;8.300;2024-03-23T06:17:40;6.70;;;2.10;;
43986;SDS011;29650;47.378;8.300;2024-03-23T06:20:07;8.27;;;2.90;;
43986;SDS011;29650;47.378;8.300;2024-03-23T06:22:35;3.65;;;2.30;;
43986;SDS011;29650;47.378;8.300;2024-03-23T06:25:04;4.07;;;2.30;;
43986;SDS011;29650;47.378;8.300;2024-03-23T06:27:30;3.53;;;2.25;;
43986;SDS011;29650;47.378;8.300;2024-03-23T06:29:58;4.53;;;2.75;;
43986;SDS011;29650;47.378;8.300;2024-03-23T06:32:24;5.50;;;2.58;;
43986;SDS011;29650;47.378;8.300;2024-03-23T06:34:51;3.08;;;1.80;;
43986;SDS011;29650;47.378;8.300;2024-03-23T06:37:17;5.63;;;2.80;;
43986;SDS011;29650;47.378;8.300;2024-03-23T06:39:45;3.50;;;2.80;;
43986;SDS011;29650;47.378;8.300;2024-03-23T06:42:13;3.58;;;2.47;;
43986;SDS011;29650;47.378;8.300;2024-03-23T06:44:40;4.80;;;2.67;;
43986;SDS011;29650;47.378;8.300;2024-03-23T06:47:05;6.18;;;3.58;;
43986;SDS011;29650;47.378;8.300;2024-03-23T06:49:32;4.78;;;2.95;;
43986;SDS011;29650;47.378;8.300;2024-03-23T06:52:00;5.68;;;2.83;;
43986;SDS011;29650;47.378;8.300;2024-03-23T06:54:26;4.18;;;2.42;;
43986;SDS011;29650;47.378;8.300;2024-03-23T06:56:52;4.25;;;2.75;;
43986;SDS011;29650;47.378;8.300;2024-03-23T06:59:20;3.30;;;2.42;;
43986;SDS011;29650;47.378;8.300;2024-03-23T07:01:47;2.70;;;1.80;;
43986;SDS011;29650;47.378;8.300;2024-03-23T07:04:13;5.20;;;1.92;;
43986;SDS011;29650;47.378;8.300;2024-03-23T07:06:42;3.10;;;1.60;;
43986;SDS011;29650;47.378;8.300;2024-03-23T07:09:08;2.00;;;1.40;;
43986;SDS011;29650;47.378;8.300;2024-03-23T07:11:35;2.00;;;1.33;;
43986;SDS011;29650;47.378;8.300;2024-03-23T07:14:01;3.88;;;1.30;;
43986;SDS011;29650;47.378;8.300;2024-03-23T07:16:30;1.33;;;1.13;;
43986;SDS011;29650;47.378;8.300;2024-03-23T07:18:56;2.72;;;1.40;;
43986;SDS011;29650;47.378;8.300;2024-03-23T07:21:23;2.00;;;1.30;;
43986;SDS011;29650;47.378;8.300;2024-03-23T07:23:49;3.38;;;1.30;;
43986;SDS011;29650;47.378;8.300;2024-03-23T07:26:16;3.17;;;1.30;;
43986;SDS011;29650;47.378;8.300;2024-03-23T07:28:43;2.47;;;1.40;;
43986;SDS011;29650;47.378;8.300;2024-03-23T07:31:11;1.83;;;1.30;;
43986;SDS011;29650;47.378;8.300;2024-03-23T07:33:43;3.35;;;1.85;;
43986;SDS011;29650;47.378;8.300;2024-03-23T07:36:11;1.42;;;1.10;;
43986;SDS011;29650;47.378;8.300;2024-03-23T07:38:37;1.58;;;1.00;;
43986;SDS011;29650;47.378;8.300;2024-03-23T07:41:06;2.90;;;1.45;;
43986;SDS011;29650;47.378;8.300;2024-03-23T07:43:33;2.00;;;0.90;;
43986;SDS011;29650;47.378;8.300;2024-03-23T07:46:01;0.45;;;0.22;;
43986;SDS011;29650;47.378;8.300;2024-03-23T07:48:28;0.32;;;0.22;;
43986;SDS011;29650;47.378;8.300;2024-03-23T07:50:57;0.63;;;0.47;;
43986;SDS011;29650;47.378;8.300;2024-03-23T07:53:24;0.60;;;0.40;;
43986;SDS011;29650;47.378;8.300;2024-03-23T07:55:55;3.22;;;0.38;;
43986;SDS011;29650;47.378;8.300;2024-03-23T07:58:22;0.15;;;0.15;;
43986;SDS011;29650;47.378;8.300;2024-03-23T08:00:49;0.20;;;0.20;;
43986;SDS011;29650;47.378;8.300;2024-03-23T08:03:15;0.20;;;0.20;;
43986;SDS011;29650;47.378;8.300;2024-03-23T08:05:42;3.97;;;0.20;;
43986;SDS011;29650;47.378;8.300;2024-03-23T08:08:09;0.65;;;0.10;;
43986;SDS011;29650;47.378;8.300;2024-03-23T08:10:37;1.13;;;0.10;;
43986;SDS011;29650;47.378;8.300;2024-03-23T08:13:03;0.63;;;0.20;;
43986;SDS011;29650;47.378;8.300;2024-03-23T08:15:31;1.42;;;0.25;;
43986;SDS011;29650;47.378;8.300;2024-03-23T08:17:58;0.77;;;0.47;;
43986;SDS011;29650;47.378;8.300;2024-03-23T08:20:26;0.15;;;0.15;;
43986;SDS011;29650;47.378;8.300;2024-03-23T08:22:52;1.60;;;0.50;;
43986;SDS011;29650;47.378;8.300;2024-03-23T08:25:21;1.90;;;0.40;;
43986;SDS011;29650;47.378;8.300;2024-03-23T08:27:47;0.38;;;0.28;;
43986;SDS011;29650;47.378;8.300;2024-03-23T08:30:14;2.15;;;0.47;;
43986;SDS011;29650;47.378;8.300;2024-03-23T08:32:41;3.80;;;0.30;;
43986;SDS011;29650;47.378;8.300;2024-03-23T08:35:08;2.00;;;0.57;;
43986;SDS011;29650;47.378;8.300;2024-03-23T08:37:34;2.38;;;0.75;;
43986;SDS011;29650;47.378;8.300;2024-03-23T08:40:01;4.00;;;0.80;;
43986;SDS011;29650;47.378;8.300;2024-03-23T08:42:31;2.20;;;0.50;;
43986;SDS011;29650;47.378;8.300;2024-03-23T08:44:58;1.95;;;0.55;;
43986;SDS011;29650;47.378;8.300;2024-03-23T08:47:24;4.15;;;1.38;;
43986;SDS011;29650;47.378;8.300;2024-03-23T08:49:51;2.10;;;0.80;;
43986;SDS011;29650;47.378;8.300;2024-03-23T08:52:17;4.20;;;0.95;;
43986;SDS011;29650;47.378;8.300;2024-03-23T08:54:44;3.05;;;1.10;;
43986;SDS011;29650;47.378;8.300;2024-03-23T08:57:11;6.10;;;1.15;;
43986;SDS011;29650;47.378;8.300;2024-03-23T08:59:39;4.55;;;1.90;;
43986;SDS011;29650;47.378;8.300;2024-03-23T09:02:05;2.53;;;1.42;;
43986;SDS011;29650;47.378;8.300;2024-03-23T09:04:32;2.92;;;1.20;;
43986;SDS011;29650;47.378;8.300;2024-03-23T09:06:58;6.90;;;2.33;;
43986;SDS011;29650;47.378;8.300;2024-03-23T09:09:25;5.32;;;1.00;;
43986;SDS011;29650;47.378;8.300;2024-03-23T09:11:51;5.53;;;0.90;;
43986;SDS011;29650;47.378;8.300;2024-03-23T09:14:18;5.00;;;1.15;;
43986;SDS011;29650;47.378;8.300;2024-03-23T09:16:46;2.47;;;1.02;;
43986;SDS011;29650;47.378;8.300;2024-03-23T09:19:16;6.50;;;1.63;;
43986;SDS011;29650;47.378;8.300;2024-03-23T09:21:42;5.82;;;0.93;;
43986;SDS011;29650;47.378;8.300;2024-03-23T09:24:09;4.90;;;0.65;;
43986;SDS011;29650;47.378;8.300;2024-03-23T09:26:35;6.78;;;1.35;;
43986;SDS011;29650;47.378;8.300;2024-03-23T09:31:29;5.53;;;1.42;;
43986;SDS011;29650;47.378;8.300;2024-03-23T09:33:58;4.55;;;1.00;;
43986;SDS011;29650;47.378;8.300;2024-03-23T09:36:24;4.20;;;1.00;;
43986;SDS011;29650;47.378;8.300;2024-03-23T09:38:51;2.97;;;1.15;;
43986;SDS011;29650;47.378;8.300;2024-03-23T09:41:17;2.03;;;0.90;;
43986;SDS011;29650;47.378;8.300;2024-03-23T09:43:45;11.57;;;1.80;;
43986;SDS011;29650;47.378;8.300;2024-03-23T09:46:13;4.43;;;1.33;;
43986;SDS011;29650;47.378;8.300;2024-03-23T09:48:40;4.88;;;1.33;;
43986;SDS011;29650;47.378;8.300;2024-03-23T09:51:10;5.93;;;1.00;;
43986;SDS011;29650;47.378;8.300;2024-03-23T09:53:37;4.70;;;1.40;;
43986;SDS011;29650;47.378;8.300;2024-03-23T09:56:04;3.47;;;0.77;;
43986;SDS011;29650;47.378;8.300;2024-03-23T09:58:31;5.80;;;1.55;;
43986;SDS011;29650;47.378;8.300;2024-03-23T10:00:57;7.72;;;1.15;;
43986;SDS011;29650;47.378;8.300;2024-03-23T10:03:25;6.90;;;1.35;;
43986;SDS011;29650;47.378;8.300;2024-03-23T10:06:00;3.25;;;1.30;;
43986;SDS011;29650;47.378;8.300;2024-03-23T10:08:29;5.88;;;1.05;;
43986;SDS011;29650;47.378;8.300;2024-03-23T10:10:55;5.32;;;1.20;;
43986;SDS011;29650;47.378;8.300;2024-03-23T10:13:38;4.50;;;1.33;;
43986;SDS011;29650;47.378;8.300;2024-03-23T10:16:07;6.13;;;1.50;;
43986;SDS011;29650;47.378;8.300;2024-03-23T10:18:36;4.68;;;1.00;;
43986;SDS011;29650;47.378;8.300;2024-03-23T10:21:06;7.47;;;1.05;;
43986;SDS011;29650;47.378;8.300;2024-03-23T10:23:37;7.80;;;1.02;;
43986;SDS011;29650;47.378;8.300;2024-03-23T10:26:16;5.43;;;1.17;;
43986;SDS011;29650;47.378;8.300;2024-03-23T10:28:53;2.25;;;0.70;;
43986;SDS011;29650;47.378;8.300;2024-03-23T10:31:24;7.45;;;1.50;;
43986;SDS011;29650;47.378;8.300;2024-03-23T10:33:51;5.95;;;1.88;;
43986;SDS011;29650;47.378;8.300;2024-03-23T10:36:19;3.93;;;0.80;;
43986;SDS011;29650;47.378;8.300;2024-03-23T10:38:47;2.63;;;1.05;;
43986;SDS011;29650;47.378;8.300;2024-03-23T10:41:15;4.35;;;1.10;;
43986;SDS011;29650;47.378;8.300;2024-03-23T10:43:41;4.28;;;1.10;;
43986;SDS011;29650;47.378;8.300;2024-03-23T10:46:11;3.63;;;0.80;;
43986;SDS011;29650;47.378;8.300;2024-03-23T10:48:37;2.15;;;0.70;;
43986;SDS011;29650;47.378;8.300;2024-03-23T10:51:05;5.38;;;1.20;;
43986;SDS011;29650;47.378;8.300;2024-03-23T10:53:33;4.45;;;0.93;;
43986;SDS011;29650;47.378;8.300;2024-03-23T10:56:04;2.80;;;0.75;;
43986;SDS011;29650;47.378;8.300;2024-03-23T10:58:31;6.70;;;1.02;;
43986;SDS011;29650;47.378;8.300;2024-03-23T11:01:03;5.82;;;1.20;;
43986;SDS011;29650;47.378;8.300;2024-03-23T11:03:30;4.88;;;1.15;;
43986;SDS011;29650;47.378;8.300;2024-03-23T11:06:01;7.05;;;1.20;;
43986;SDS011;29650;47.378;8.300;2024-03-23T11:08:34;5.53;;;1.02;;
43986;SDS011;29650;47.378;8.300;2024-03-23T11:11:13;3.15;;;0.80;;
43986;SDS011;29650;47.378;8.300;2024-03-23T11:13:43;2.58;;;1.08;;
43986;SDS011;29650;47.378;8.300;2024-03-23T11:16:16;6.57;;;1.23;;
43986;SDS011;29650;47.378;8.300;2024-03-23T11:18:48;3.72;;;0.90;;
43986;SDS011;29650;47.378;8.300;2024-03-23T11:24:20;5.25;;;1.45;;
43986;SDS011;29650;47.378;8.300;2024-03-23T11:26:48;5.22;;;1.17;;
43986;SDS011;29650;47.378;8.300;2024-03-23T11:29:15;1.75;;;0.60;;
43986;SDS011;29650;47.378;8.300;2024-03-23T11:31:46;6.00;;;1.15;;
43986;SDS011;29650;47.378;8.300;2024-03-23T11:36:39;3.33;;;0.90;;
43986;SDS011;29650;47.378;8.300;2024-03-23T11:39:15;6.60;;;1.20;;
43986;SDS011;29650;47.378;8.300;2024-03-23T11:41:46;3.17;;;0.57;;
43986;SDS011;29650;47.378;8.300;2024-03-23T11:44:15;4.22;;;1.38;;
43986;SDS011;29650;47.378;8.300;2024-03-23T11:46:43;1.38;;;0.52;;
43986;SDS011;29650;47.378;8.300;2024-03-23T11:49:19;2.13;;;0.80;;
43986;SDS011;29650;47.378;8.300;2024-03-23T11:51:49;2.13;;;0.77;;
43986;SDS011;29650;47.378;8.300;2024-03-23T11:54:16;2.65;;;1.13;;
43986;SDS011;29650;47.378;8.300;2024-03-23T11:56:58;4.18;;;0.85;;
43986;SDS011;29650;47.378;8.300;2024-03-23T11:59:34;5.18;;;0.77;;
43986;SDS011;29650;47.378;8.300;2024-03-23T12:02:05;1.70;;;0.80;;
43986;SDS011;29650;47.378;8.300;2024-03-23T12:04:32;1.83;;;0.50;;
43986;SDS011;29650;47.378;8.300;2024-03-23T12:07:10;5.55;;;0.73;;
43986;SDS011;29650;47.378;8.300;2024-03-23T12:09:37;5.45;;;1.02;;
43986;SDS011;29650;47.378;8.300;2024-03-23T12:12:10;3.20;;;1.40;;
43986;SDS011;29650;47.378;8.300;2024-03-23T12:14:39;4.07;;;0.70;;
43986;SDS011;29650;47.378;8.300;2024-03-23T12:17:10;6.63;;;0.75;;
43986;SDS011;29650;47.378;8.300;2024-03-23T12:19:37;5.93;;;0.95;;
43986;SDS011;29650;47.378;8.300;2024-03-23T12:22:04;2.85;;;0.90;;
43986;SDS011;29650;47.378;8.300;2024-03-23T12:24:31;3.08;;;0.98;;
43986;SDS011;29650;47.378;8.300;2024-03-23T12:26:59;4.77;;;0.97;;
43986;SDS011;29650;47.378;8.300;2024-03-23T12:29:28;1.80;;;0.80;;
43986;SDS011;29650;47.378;8.300;2024-03-23T12:31:56;6.75;;;0.95;;
43986;SDS011;29650;47.378;8.300;2024-03-23T12:34:24;2.88;;;1.08;;
43986;SDS011;29650;47.378;8.300;2024-03-23T12:36:51;5.00;;;0.88;;
43986;SDS011;29650;47.378;8.300;2024-03-23T12:39:17;4.90;;;0.82;;
43986;SDS011;29650;47.378;8.300;2024-03-23T12:41:45;6.63;;;1.97;;
43986;SDS011;29650;47.378;8.300;2024-03-23T12:44:11;4.68;;;0.75;;
43986;SDS011;29650;47.378;8.300;2024-03-23T12:46:41;3.45;;;0.95;;
43986;SDS011;29650;47.378;8.300;2024-03-23T12:49:07;5.30;;;1.55;;
43986;SDS011;29650;47.378;8.300;2024-03-23T12:51:34;3.15;;;0.80;;
43986;SDS011;29650;47.378;8.300;2024-03-23T12:54:01;3.65;;;0.90;;
43986;SDS011;29650;47.378;8.300;2024-03-23T12:56:28;1.92;;;0.80;;
43986;SDS011;29650;47.378;8.300;2024-03-23T12:58:54;2.38;;;1.20;;
43986;SDS011;29650;47.378;8.300;2024-03-23T13:01:22;4.97;;;1.13;;
43986;SDS011;29650;47.378;8.300;2024-03-23T13:03:49;5.93;;;2.22;;
43986;SDS011;29650;47.378;8.300;2024-03-23T13:06:17;2.77;;;0.60;;
43986;SDS011;29650;47.378;8.300;2024-03-23T13:08:43;1.40;;;0.60;;
43986;SDS011;29650;47.378;8.300;2024-03-23T13:11:11;1.85;;;0.40;;
43986;SDS011;29650;47.378;8.300;2024-03-23T13:13:37;2.40;;;0.60;;
43986;SDS011;29650;47.378;8.300;2024-03-23T13:16:04;3.47;;;0.80;;
43986;SDS011;29650;47.378;8.300;2024-03-23T13:18:30;2.38;;;0.52;;
43986;SDS011;29650;47.378;8.300;2024-03-23T13:20:59;2.80;;;0.60;;
43986;SDS011;29650;47.378;8.300;2024-03-23T13:23:25;2.33;;;0.50;;
43986;SDS011;29650;47.378;8.300;2024-03-23T13:25:53;1.92;;;0.57;;
43986;SDS011;29650;47.378;8.300;2024-03-23T13:28:20;3.55;;;1.15;;
43986;SDS011;29650;47.378;8.300;2024-03-23T13:30:50;1.80;;;0.57;;
43986;SDS011;29650;47.378;8.300;2024-03-23T13:33:17;4.18;;;0.80;;
43986;SDS011;29650;47.378;8.300;2024-03-23T13:35:50;3.40;;;0.77;;
43986;SDS011;29650;47.378;8.300;2024-03-23T13:38:18;4.78;;;0.82;;
43986;SDS011;29650;47.378;8.300;2024-03-23T13:40:51;4.90;;;0.90;;
43986;SDS011;29650;47.378;8.300;2024-03-23T13:43:18;3.63;;;1.02;;
43986;SDS011;29650;47.378;8.300;2024-03-23T13:45:46;6.55;;;0.80;;
43986;SDS011;29650;47.378;8.300;2024-03-23T13:48:13;3.92;;;0.98;;
43986;SDS011;29650;47.378;8.300;2024-03-23T13:50:40;1.80;;;0.50;;
43986;SDS011;29650;47.378;8.300;2024-03-23T13:53:07;4.78;;;1.25;;
43986;SDS011;29650;47.378;8.300;2024-03-23T13:55:35;2.90;;;0.77;;
43986;SDS011;29650;47.378;8.300;2024-03-23T13:58:02;3.47;;;0.90;;
43986;SDS011;29650;47.378;8.300;2024-03-23T14:00:29;4.97;;;1.08;;
43986;SDS011;29650;47.378;8.300;2024-03-23T14:02:57;4.05;;;0.98;;
43986;SDS011;29650;47.378;8.300;2024-03-23T14:05:23;3.63;;;0.70;;
43986;SDS011;29650;47.378;8.300;2024-03-23T14:07:50;5.38;;;1.25;;
43986;SDS011;29650;47.378;8.300;2024-03-23T14:10:16;5.75;;;1.13;;
43986;SDS011;29650;47.378;8.300;2024-03-23T14:12:44;4.25;;;0.90;;
43986;SDS011;29650;47.378;8.300;2024-03-23T14:15:10;5.70;;;1.15;;
43986;SDS011;29650;47.378;8.300;2024-03-23T14:17:37;3.70;;;0.55;;
43986;SDS011;29650;47.378;8.300;2024-03-23T14:20:04;2.80;;;0.90;;
43986;SDS011;29650;47.378;8.300;2024-03-23T14:22:34;4.03;;;1.00;;
43986;SDS011;29650;47.378;8.300;2024-03-23T14:25:00;4.75;;;0.85;;
43986;SDS011;29650;47.378;8.300;2024-03-23T14:27:27;3.92;;;1.08;;
43986;SDS011;29650;47.378;8.300;2024-03-23T14:29:54;5.13;;;0.90;;
43986;SDS011;29650;47.378;8.300;2024-03-23T14:32:22;3.85;;;0.70;;
43986;SDS011;29650;47.378;8.300;2024-03-23T14:34:47;3.95;;;0.80;;
43986;SDS011;29650;47.378;8.300;2024-03-23T14:37:14;4.05;;;0.85;;
43986;SDS011;29650;47.378;8.300;2024-03-23T14:39:41;8.95;;;1.10;;
43986;SDS011;29650;47.378;8.300;2024-03-23T14:42:09;4.70;;;0.70;;
43986;SDS011;29650;47.378;8.300;2024-03-23T14:44:35;2.05;;;0.90;;
43986;SDS011;29650;47.378;8.300;2024-03-23T14:47:04;2.78;;;0.60;;
43986;SDS011;29650;47.378;8.300;2024-03-23T14:49:30;3.58;;;0.98;;
43986;SDS011;29650;47.378;8.300;2024-03-23T14:51:57;6.03;;;0.90;;
43986;SDS011;29650;47.378;8.300;2024-03-23T14:54:23;5.25;;;0.47;;
43986;SDS011;29650;47.378;8.300;2024-03-23T14:56:50;5.97;;;0.88;;
43986;SDS011;29650;47.378;8.300;2024-03-23T14:59:17;5.30;;;0.65;;
43986;SDS011;29650;47.378;8.300;2024-03-23T15:01:44;3.55;;;0.60;;
43986;SDS011;29650;47.378;8.300;2024-03-23T15:04:12;4.07;;;0.60;;
43986;SDS011;29650;47.378;8.300;2024-03-23T15:06:39;3.55;;;1.00;;
43986;SDS011;29650;47.378;8.300;2024-03-23T15:09:05;7.03;;;0.90;;
43986;SDS011;29650;47.378;8.300;2024-03-23T15:11:34;3.80;;;0.80;;
43986;SDS011;29650;47.378;8.300;2024-03-23T15:14:00;3.50;;;0.68;;
43986;SDS011;29650;47.378;8.300;2024-03-23T15:16:27;3.30;;;0.80;;
43986;SDS011;29650;47.378;8.300;2024-03-23T15:18:53;2.42;;;1.08;;
43986;SDS011;29650;47.378;8.300;2024-03-23T15:21:21;3.83;;;0.98;;
43986;SDS011;29650;47.378;8.300;2024-03-23T15:23:48;2.88;;;0.85;;
43986;SDS011;29650;47.378;8.300;2024-03-23T15:26:15;4.55;;;0.63;;
43986;SDS011;29650;47.378;8.300;2024-03-23T15:28:41;3.78;;;0.77;;
43986;SDS011;29650;47.378;8.300;2024-03-23T15:31:28;3.95;;;0.70;;
43986;SDS011;29650;47.378;8.300;2024-03-23T15:33:54;4.35;;;0.80;;
43986;SDS011;29650;47.378;8.300;2024-03-23T15:36:22;5.05;;;0.77;;
43986;SDS011;29650;47.378;8.300;2024-03-23T15:38:48;2.75;;;0.70;;
43986;SDS011;29650;47.378;8.300;2024-03-23T15:41:15;5.35;;;0.80;;
43986;SDS011;29650;47.378;8.300;2024-03-23T15:43:42;3.78;;;0.98;;
43986;SDS011;29650;47.378;8.300;2024-03-23T15:46:09;1.60;;;0.68;;
43986;SDS011;29650;47.378;8.300;2024-03-23T15:48:36;1.75;;;0.40;;